Glen Ridge, Illinois
Current Conditions -  °F | °C
As of 11:15 AM on Friday 19 Dec 2014 (Local Time) from KSLO Reporting Station
Overcast Overcast  
Wind Chill: 35°   Ceiling: 3700
Heat Index: 35°   Visibility: 7mi
Dew Point: 26°   Wind: 3mph
Humidity: 69%   Direction: 80°E
Pressure: 30.32"   Gusts: NA
Location:  38.663°N, 89.0946°W
Report Text: KSLO 191715Z AUTO 08003KT 7SM OVC037 02/M03 A3032 RMK AO2 T00171034
Loading
Personal Weather Stations






























Interactive Weather Map New forecast layout! Learn more

10-Day Weather Forecast

Advertisements
Track Severe Weather on mobile